Time;durP1;ratioP1;P1;durP2;ratioP2;P2;SDS_P1;SDS_P2;PMS_P1;PMS_P2;Temp;Humidity;BMP_temperature;BMP_pressure;BME280_temperature;BME280_humidity;BME280_pressure;Samples;Min_cycle;Max_cycle;Signal;HPM_P1;HPM_P2
2021/10/01 00:01:50;;;;;;;6.83;2.27;;;;;;;;;;5100070;28;20450;-75
2021/10/01 00:04:17;;;;;;;5.10;2.23;;;;;;;;;;5100984;28;20803;-75
2021/10/01 00:06:45;;;;;;;10.20;2.90;;;;;;;;;;5100313;28;20439;-74
2021/10/01 00:09:12;;;;;;;3.10;2.20;;;;;;;;;;5100307;28;20443;-76
2021/10/01 00:11:41;;;;;;;8.10;2.57;;;;;;;;;;5099897;28;20446;-76
2021/10/01 00:14:09;;;;;;;6.87;2.50;;;;;;;;;;5100239;28;20493;-77
2021/10/01 00:16:36;;;;;;;4.10;2.27;;;;;;;;;;5099877;28;20907;-74
2021/10/01 00:19:05;;;;;;;5.97;2.00;;;;;;;;;;5099926;28;20443;-74
2021/10/01 00:21:32;;;;;;;5.00;2.00;;;;;;;;;;5100060;28;20446;-74
2021/10/01 00:23:59;;;;;;;5.27;2.20;;;;;;;;;;5099906;28;20467;-74
2021/10/01 00:26:26;;;;;;;5.17;2.13;;;;;;;;;;5099859;28;20439;-74
2021/10/01 00:28:53;;;;;;;6.73;2.30;;;;;;;;;;5099588;28;20471;-74
2021/10/01 00:31:20;;;;;;;2.20;2.00;;;;;;;;;;5099783;28;20450;-74
2021/10/01 00:33:47;;;;;;;5.43;2.40;;;;;;;;;;5099788;28;20509;-74
2021/10/01 00:36:16;;;;;;;4.47;2.17;;;;;;;;;;5099651;28;20474;-73
2021/10/01 00:38:43;;;;;;;4.60;3.27;;;;;;;;;;5099775;28;20439;-74
2021/10/01 00:41:10;;;;;;;4.93;2.53;;;;;;;;;;5100528;28;20439;-74
2021/10/01 00:43:37;;;;;;;7.80;2.57;;;;;;;;;;5099640;28;20443;-74
2021/10/01 00:46:05;;;;;;;6.63;2.33;;;;;;;;;;5099347;28;20447;-74
2021/10/01 00:48:32;;;;;;;4.03;2.07;;;;;;;;;;5096726;28;20449;-74
2021/10/01 00:50:59;;;;;;;2.53;2.13;;;;;;;;;;5096132;28;20443;-74
2021/10/01 00:53:28;;;;;;;2.13;1.90;;;;;;;;;;5096915;28;20447;-75
2021/10/01 00:55:56;;;;;;;3.17;1.67;;;;;;;;;;5096449;28;20475;-74
2021/10/01 00:58:23;;;;;;;6.77;3.30;;;;;;;;;;5096128;28;20453;-74
2021/10/01 01:01:02;;;;;;;3.73;2.27;;;;;;;;;;5095901;28;20443;-74
2021/10/01 01:03:30;;;;;;;3.83;2.30;;;;;;;;;;5096198;28;20432;-74
2021/10/01 01:06:01;;;;;;;3.40;2.20;;;;;;;;;;5095837;28;20448;-74
2021/10/01 01:08:34;;;;;;;2.43;1.80;;;;;;;;;;5096527;28;20913;-74
2021/10/01 01:11:05;;;;;;;8.20;2.17;;;;;;;;;;5096359;28;20432;-74
2021/10/01 01:13:36;;;;;;;3.40;1.70;;;;;;;;;;5096559;28;20424;-74
2021/10/01 01:16:06;;;;;;;6.23;2.17;;;;;;;;;;5095982;28;20822;-75
2021/10/01 01:18:36;;;;;;;6.47;2.00;;;;;;;;;;5096330;28;20431;-75
2021/10/01 01:21:04;;;;;;;9.27;3.50;;;;;;;;;;5096399;28;20766;-75
2021/10/01 01:23:50;;;;;;;4.27;2.27;;;;;;;;;;5096231;28;20800;-75
2021/10/01 01:26:21;;;;;;;7.40;2.60;;;;;;;;;;5096014;28;20436;-74
2021/10/01 01:29:03;;;;;;;5.10;2.23;;;;;;;;;;5095413;28;20471;-75
2021/10/01 01:31:35;;;;;;;3.77;2.40;;;;;;;;;;5096010;28;20422;-75
2021/10/01 01:34:04;;;;;;;5.57;2.33;;;;;;;;;;5095395;28;20428;-75
2021/10/01 01:36:32;;;;;;;4.37;2.50;;;;;;;;;;5095227;28;20482;-74
2021/10/01 01:39:00;;;;;;;7.60;2.37;;;;;;;;;;5096001;28;20813;-74
2021/10/01 01:41:27;;;;;;;3.30;2.10;;;;;;;;;;5095497;28;20462;-76
2021/10/01 01:43:56;;;;;;;2.60;2.40;;;;;;;;;;5095117;28;20436;-75
2021/10/01 01:46:23;;;;;;;6.33;2.33;;;;;;;;;;5095436;28;20438;-75
2021/10/01 01:48:51;;;;;;;2.60;2.40;;;;;;;;;;5095259;28;20448;-75
2021/10/01 01:51:19;;;;;;;4.65;2.58;;;;;;;;;;5095712;28;21032;-74
2021/10/01 01:53:47;;;;;;;4.40;2.20;;;;;;;;;;5095585;28;20190;-74
2021/10/01 01:56:15;;;;;;;3.00;2.00;;;;;;;;;;5095178;28;20551;-74
2021/10/01 01:58:43;;;;;;;4.20;2.40;;;;;;;;;;5094998;28;20442;-73
2021/10/01 02:01:10;;;;;;;2.13;1.90;;;;;;;;;;5094781;28;20435;-74
2021/10/01 02:03:38;;;;;;;4.43;2.10;;;;;;;;;;5094733;28;20443;-75
2021/10/01 02:06:07;;;;;;;5.03;2.50;;;;;;;;;;5094995;28;20443;-75
2021/10/01 02:08:36;;;;;;;3.47;1.90;;;;;;;;;;5095761;28;20439;-74
2021/10/01 02:11:04;;;;;;;2.70;2.00;;;;;;;;;;5095525;28;20446;-75
2021/10/01 02:13:31;;;;;;;3.33;1.90;;;;;;;;;;5094530;28;20921;-75
2021/10/01 02:15:58;;;;;;;3.27;2.07;;;;;;;;;;5095056;28;20475;-75
2021/10/01 02:18:27;;;;;;;5.53;2.97;;;;;;;;;;5094801;28;20443;-74
2021/10/01 02:20:57;;;;;;;2.50;2.30;;;;;;;;;;5094420;28;20451;-75
2021/10/01 02:23:24;;;;;;;3.40;1.83;;;;;;;;;;5094399;28;20451;-76
2021/10/01 02:28:58;;;;;;;3.60;2.47;;;;;;;;;;5032036;28;20461;-74
2021/10/01 02:31:28;;;;;;;3.10;2.00;;;;;;;;;;5032111;28;20446;-75
2021/10/01 02:33:57;;;;;;;4.33;2.50;;;;;;;;;;5062032;28;20443;-75
2021/10/01 02:36:24;;;;;;;4.90;2.30;;;;;;;;;;5094409;28;20479;-75
2021/10/01 02:38:52;;;;;;;4.30;2.20;;;;;;;;;;5094316;28;20963;-75
2021/10/01 02:41:21;;;;;;;3.73;2.30;;;;;;;;;;5094364;28;20448;-74
2021/10/01 02:43:48;;;;;;;6.77;1.93;;;;;;;;;;5094325;28;20770;-74
2021/10/01 02:46:15;;;;;;;3.43;2.13;;;;;;;;;;5094272;28;20473;-74
2021/10/01 02:48:42;;;;;;;2.13;1.93;;;;;;;;;;5094416;28;20438;-75
2021/10/01 02:51:13;;;;;;;2.50;1.63;;;;;;;;;;5094371;28;20444;-75
2021/10/01 02:53:47;;;;;;;5.30;2.10;;;;;;;;;;5094379;28;20436;-75
2021/10/01 02:56:15;;;;;;;10.40;2.30;;;;;;;;;;5094515;28;20474;-75
2021/10/01 02:58:47;;;;;;;9.33;4.60;;;;;;;;;;5093805;28;20447;-74
2021/10/01 03:01:15;;;;;;;2.30;2.10;;;;;;;;;;5093651;28;20502;-74
2021/10/01 03:03:44;;;;;;;2.83;1.80;;;;;;;;;;5093632;28;20440;-75
2021/10/01 03:06:12;;;;;;;4.17;2.33;;;;;;;;;;5093812;28;20440;-75
2021/10/01 03:08:40;;;;;;;6.50;2.63;;;;;;;;;;5093955;28;20438;-75
2021/10/01 03:11:10;;;;;;;3.17;1.90;;;;;;;;;;5093919;28;20938;-74
2021/10/01 03:13:38;;;;;;;3.53;1.87;;;;;;;;;;5094580;28;20528;-73
2021/10/01 03:16:07;;;;;;;2.07;1.90;;;;;;;;;;5093930;28;20483;-76
2021/10/01 03:18:34;;;;;;;3.07;2.07;;;;;;;;;;5093770;28;20446;-76
2021/10/01 03:21:03;;;;;;;3.03;1.70;;;;;;;;;;5093732;28;20443;-75
2021/10/01 03:23:30;;;;;;;3.47;1.70;;;;;;;;;;5093741;28;20530;-75
2021/10/01 03:25:57;;;;;;;2.90;1.93;;;;;;;;;;5093699;28;20431;-74
2021/10/01 03:28:25;;;;;;;4.13;2.00;;;;;;;;;;5093950;28;20488;-74
2021/10/01 03:30:52;;;;;;;2.03;1.93;;;;;;;;;;5093724;28;20436;-74
2021/10/01 03:33:24;;;;;;;2.93;2.00;;;;;;;;;;5093315;28;20445;-74
2021/10/01 03:35:51;;;;;;;2.40;1.50;;;;;;;;;;5093658;28;20427;-75
2021/10/01 03:38:19;;;;;;;2.20;1.77;;;;;;;;;;5093295;28;20447;-74
2021/10/01 03:40:47;;;;;;;4.30;2.20;;;;;;;;;;5093518;28;20494;-76
2021/10/01 03:43:15;;;;;;;2.77;1.80;;;;;;;;;;5093501;28;20443;-76
2021/10/01 03:45:42;;;;;;;3.00;2.47;;;;;;;;;;5093481;28;20915;-75
2021/10/01 03:48:10;;;;;;;7.10;2.20;;;;;;;;;;5093603;28;20797;-75
2021/10/01 03:50:39;;;;;;;3.97;2.30;;;;;;;;;;5093446;28;20439;-75
2021/10/01 03:53:06;;;;;;;8.30;2.20;;;;;;;;;;5092996;28;20439;-74
2021/10/01 03:55:33;;;;;;;2.17;1.80;;;;;;;;;;5093863;28;20447;-74
2021/10/01 03:58:01;;;;;;;9.47;2.53;;;;;;;;;;5093327;28;20484;-76
2021/10/01 04:00:28;;;;;;;2.30;1.70;;;;;;;;;;5093347;28;20435;-77
2021/10/01 04:02:55;;;;;;;6.70;2.30;;;;;;;;;;5093296;28;20508;-74
2021/10/01 04:05:22;;;;;;;2.90;2.03;;;;;;;;;;5092991;28;20441;-74
2021/10/01 04:07:51;;;;;;;6.93;2.07;;;;;;;;;;5093925;28;20446;-74
2021/10/01 04:10:18;;;;;;;3.23;1.90;;;;;;;;;;5092945;28;20443;-75
2021/10/01 04:12:45;;;;;;;5.50;1.67;;;;;;;;;;5093380;28;20449;-75
2021/10/01 04:15:13;;;;;;;4.93;1.83;;;;;;;;;;5094080;28;20477;-74
2021/10/01 04:17:40;;;;;;;6.43;1.77;;;;;;;;;;5093149;28;20479;-74
2021/10/01 04:20:07;;;;;;;5.00;2.30;;;;;;;;;;5093220;28;20441;-74
2021/10/01 04:22:34;;;;;;;3.40;1.50;;;;;;;;;;5093273;28;20440;-73
2021/10/01 04:25:03;;;;;;;7.93;2.13;;;;;;;;;;5097550;28;20435;-84
2021/10/01 04:27:30;;;;;;;2.60;2.40;;;;;;;;;;5097270;28;20819;-85
2021/10/01 04:29:59;;;;;;;6.70;1.93;;;;;;;;;;5095735;28;20462;-81
2021/10/01 04:32:26;;;;;;;1.83;1.70;;;;;;;;;;5095872;28;20963;-84
2021/10/01 04:35:03;;;;;;;5.80;2.00;;;;;;;;;;5096280;28;20471;-83
2021/10/01 04:37:30;;;;;;;6.53;2.10;;;;;;;;;;5095764;28;20296;-81
2021/10/01 04:39:57;;;;;;;5.43;2.10;;;;;;;;;;5099095;28;20433;-80
2021/10/01 04:42:26;;;;;;;5.40;1.87;;;;;;;;;;5109797;28;20450;-84
2021/10/01 04:44:53;;;;;;;8.47;1.97;;;;;;;;;;5097697;28;21001;-83
2021/10/01 04:47:21;;;;;;;3.20;2.00;;;;;;;;;;5096345;28;20454;-81
2021/10/01 04:52:22;;;;;;;3.10;1.67;;;;;;;;;;5038842;22;20481;-84
2021/10/01 04:54:49;;;;;;;4.07;2.00;;;;;;;;;;5035922;28;20443;-77
2021/10/01 04:57:17;;;;;;;4.47;2.60;;;;;;;;;;5035737;28;20480;-76
2021/10/01 04:59:45;;;;;;;11.30;2.27;;;;;;;;;;5025322;28;20445;-77
2021/10/01 05:02:12;;;;;;;3.53;2.37;;;;;;;;;;5016024;28;20449;-77
2021/10/01 05:04:40;;;;;;;5.73;2.33;;;;;;;;;;5016104;28;20451;-78
2021/10/01 05:07:07;;;;;;;6.30;2.00;;;;;;;;;;5015986;28;20451;-76
2021/10/01 05:09:34;;;;;;;4.07;1.87;;;;;;;;;;5015911;28;20453;-76
2021/10/01 05:12:01;;;;;;;4.87;2.40;;;;;;;;;;5016344;28;20476;-77
2021/10/01 05:14:28;;;;;;;5.03;1.90;;;;;;;;;;5016097;28;20813;-76
2021/10/01 05:16:57;;;;;;;3.13;1.80;;;;;;;;;;5016237;28;20514;-76
2021/10/01 05:19:24;;;;;;;5.07;2.17;;;;;;;;;;5015663;28;20446;-76
2021/10/01 05:21:51;;;;;;;9.13;2.73;;;;;;;;;;5015524;28;20900;-76
2021/10/01 05:24:18;;;;;;;4.23;2.47;;;;;;;;;;5015887;28;20534;-77
2021/10/01 05:26:45;;;;;;;6.27;2.10;;;;;;;;;;5015730;28;20444;-76
2021/10/01 05:29:13;;;;;;;2.70;2.00;;;;;;;;;;5016137;28;20445;-75
2021/10/01 05:31:40;;;;;;;4.00;1.80;;;;;;;;;;5015761;28;20435;-75
2021/10/01 05:34:08;;;;;;;5.60;2.03;;;;;;;;;;5015415;28;20294;-74
2021/10/01 05:36:36;;;;;;;4.57;1.80;;;;;;;;;;5015375;28;20980;-74
2021/10/01 05:39:04;;;;;;;6.30;2.00;;;;;;;;;;5015909;28;20447;-74
2021/10/01 05:41:31;;;;;;;4.37;2.20;;;;;;;;;;5015452;28;20454;-74
2021/10/01 05:43:59;;;;;;;2.10;1.90;;;;;;;;;;5015445;28;20520;-76
2021/10/01 05:46:26;;;;;;;2.60;2.00;;;;;;;;;;5015490;28;20530;-76
2021/10/01 05:48:57;;;;;;;2.23;1.80;;;;;;;;;;5015370;28;20454;-74
2021/10/01 05:51:28;;;;;;;4.23;1.97;;;;;;;;;;5015918;28;20486;-75
2021/10/01 05:56:37;;;;;;;4.80;2.43;;;;;;;;;;5012833;28;20433;-74
2021/10/01 05:59:04;;;;;;;9.07;2.80;;;;;;;;;;5015548;28;20436;-75
2021/10/01 06:01:31;;;;;;;1.90;1.60;;;;;;;;;;5015228;28;20467;-74
2021/10/01 06:03:58;;;;;;;3.87;2.70;;;;;;;;;;5015080;28;20443;-74
2021/10/01 06:06:28;;;;;;;3.70;1.73;;;;;;;;;;5015076;28;20443;-76
2021/10/01 06:08:55;;;;;;;2.00;1.87;;;;;;;;;;5014731;28;20963;-75
2021/10/01 06:11:22;;;;;;;6.23;2.10;;;;;;;;;;5014969;28;20447;-75
2021/10/01 06:13:49;;;;;;;8.23;1.97;;;;;;;;;;5014861;28;20439;-74
2021/10/01 06:16:16;;;;;;;2.53;1.80;;;;;;;;;;5014598;28;20447;-74
2021/10/01 06:18:44;;;;;;;2.57;1.67;;;;;;;;;;5014612;28;20553;-75
2021/10/01 06:21:11;;;;;;;7.47;2.23;;;;;;;;;;5015403;28;20546;-74
2021/10/01 06:23:39;;;;;;;5.57;1.83;;;;;;;;;;5015091;28;20439;-74
2021/10/01 06:26:07;;;;;;;6.37;1.70;;;;;;;;;;5014408;28;20954;-74
2021/10/01 06:28:34;;;;;;;3.40;2.10;;;;;;;;;;5014691;28;20786;-75
2021/10/01 06:31:02;;;;;;;9.10;2.27;;;;;;;;;;5015146;28;20435;-75
2021/10/01 06:33:29;;;;;;;3.87;1.83;;;;;;;;;;5014577;28;20501;-75
2021/10/01 06:35:57;;;;;;;4.57;2.30;;;;;;;;;;5014997;28;20444;-75
2021/10/01 06:38:24;;;;;;;5.20;1.97;;;;;;;;;;5014521;28;20486;-75
2021/10/01 06:40:52;;;;;;;8.07;2.00;;;;;;;;;;5014687;28;20457;-74
2021/10/01 06:43:20;;;;;;;4.20;2.33;;;;;;;;;;5014487;28;20653;-74
2021/10/01 06:45:52;;;;;;;2.13;1.70;;;;;;;;;;5013868;28;20499;-75
2021/10/01 06:48:39;;;;;;;6.23;1.93;;;;;;;;;;5014498;28;20493;-75
2021/10/01 08:19:32;;;;;;;43.30;5.00;;;;;;;;;;5016742;28;20407;-74
2021/10/01 08:22:00;;;;;;;56.10;7.40;;;;;;;;;;5016924;28;20486;-75
2021/10/01 08:24:27;;;;;;;16.90;3.90;;;;;;;;;;5017516;28;20447;-75
2021/10/01 08:26:55;;;;;;;6.00;1.80;;;;;;;;;;5016907;28;20441;-75
2021/10/01 08:29:23;;;;;;;3.10;1.97;;;;;;;;;;5017698;28;20452;-74
2021/10/01 08:31:51;;;;;;;5.30;1.90;;;;;;;;;;5017240;28;20464;-75
2021/10/01 08:34:20;;;;;;;3.50;1.77;;;;;;;;;;5016748;28;20449;-75
2021/10/01 08:36:48;;;;;;;4.03;1.90;;;;;;;;;;5016451;28;20448;-75
2021/10/01 08:39:16;;;;;;;10.20;2.80;;;;;;;;;;5016253;28;20476;-74
2021/10/01 08:41:43;;;;;;;106.43;10.97;;;;;;;;;;5016350;28;20441;-75
2021/10/01 08:44:10;;;;;;;17.70;3.40;;;;;;;;;;5017084;28;20456;-75
2021/10/01 08:46:38;;;;;;;8.53;2.13;;;;;;;;;;5016553;28;20451;-75
2021/10/01 08:49:06;;;;;;;8.17;2.30;;;;;;;;;;5016257;28;20443;-75
2021/10/01 08:51:34;;;;;;;6.17;2.63;;;;;;;;;;5016145;28;20479;-75
2021/10/01 08:54:02;;;;;;;8.37;3.07;;;;;;;;;;5016431;28;20801;-75
2021/10/01 08:56:29;;;;;;;6.50;1.83;;;;;;;;;;5016061;28;20458;-74
2021/10/01 08:58:57;;;;;;;4.33;2.70;;;;;;;;;;5016712;28;20974;-75
2021/10/01 09:01:24;;;;;;;8.53;2.17;;;;;;;;;;5016053;28;20452;-75
2021/10/01 09:03:51;;;;;;;3.57;2.20;;;;;;;;;;5016474;28;20444;-74
2021/10/01 09:06:19;;;;;;;4.30;1.77;;;;;;;;;;5015871;28;20928;-75
2021/10/01 09:08:50;;;;;;;6.97;2.40;;;;;;;;;;5015509;28;20451;-74
2021/10/01 09:11:19;;;;;;;16.33;3.20;;;;;;;;;;5016476;28;20441;-74
2021/10/01 09:13:46;;;;;;;9.83;2.33;;;;;;;;;;5016388;28;20438;-74
2021/10/01 09:16:14;;;;;;;4.00;2.10;;;;;;;;;;5015573;28;20443;-74
2021/10/01 09:18:42;;;;;;;6.77;1.70;;;;;;;;;;5015850;28;20476;-74
2021/10/01 09:21:10;;;;;;;90.20;8.77;;;;;;;;;;5015707;28;20815;-74
2021/10/01 09:23:42;;;;;;;99.10;10.20;;;;;;;;;;5015593;28;20449;-74
2021/10/01 09:26:13;;;;;;;82.87;7.87;;;;;;;;;;5015745;28;20444;-75
2021/10/01 09:28:47;;;;;;;24.93;2.87;;;;;;;;;;5016096;28;20433;-75
2021/10/01 09:31:29;;;;;;;5.00;1.90;;;;;;;;;;5016328;28;20448;-76
2021/10/01 09:33:56;;;;;;;41.57;6.00;;;;;;;;;;5016226;28;20432;-75
2021/10/01 09:36:25;;;;;;;10.43;2.20;;;;;;;;;;5015591;28;20446;-75
2021/10/01 09:38:53;;;;;;;16.23;2.60;;;;;;;;;;5017431;28;20512;-75
2021/10/01 09:41:24;;;;;;;22.80;2.90;;;;;;;;;;5016023;28;20450;-74
2021/10/01 09:44:00;;;;;;;39.57;4.30;;;;;;;;;;5015835;28;20764;-74
2021/10/01 09:46:34;;;;;;;22.93;2.87;;;;;;;;;;5015171;28;20434;-74
2021/10/01 09:49:03;;;;;;;9.50;2.20;;;;;;;;;;5015760;28;20786;-74
2021/10/01 09:51:30;;;;;;;2.97;2.00;;;;;;;;;;5015219;28;20595;-74
2021/10/01 09:53:57;;;;;;;4.50;2.20;;;;;;;;;;5015170;28;20866;-74
2021/10/01 09:56:26;;;;;;;14.73;2.77;;;;;;;;;;5015455;28;20439;-74
2021/10/01 09:59:05;;;;;;;39.97;6.03;;;;;;;;;;5015343;28;20486;-75
2021/10/01 10:01:33;;;;;;;13.70;2.00;;;;;;;;;;5015707;28;20436;-74
2021/10/01 10:04:13;;;;;;;17.20;2.90;;;;;;;;;;5015421;28;20447;-76
2021/10/01 10:06:43;;;;;;;18.57;2.90;;;;;;;;;;5015470;28;20439;-75
2021/10/01 10:09:10;;;;;;;7.63;2.77;;;;;;;;;;5015236;28;20526;-75
2021/10/01 10:11:48;;;;;;;10.50;2.40;;;;;;;;;;5014943;28;20435;-75
2021/10/01 10:14:17;;;;;;;11.97;2.90;;;;;;;;;;5014976;28;20438;-75
2021/10/01 10:16:44;;;;;;;6.97;2.47;;;;;;;;;;5014794;28;20449;-76
2021/10/01 10:19:20;;;;;;;16.27;3.67;;;;;;;;;;5014329;28;20483;-75
2021/10/01 10:21:47;;;;;;;6.07;1.80;;;;;;;;;;5013397;28;20463;-75
2021/10/01 10:24:14;;;;;;;3.73;1.83;;;;;;;;;;5015023;28;20538;-75
2021/10/01 10:26:42;;;;;;;4.30;2.03;;;;;;;;;;5014602;28;20531;-74
2021/10/01 10:29:11;;;;;;;11.13;2.43;;;;;;;;;;5014580;28;20448;-74
2021/10/01 10:31:43;;;;;;;5.70;2.03;;;;;;;;;;5014468;28;20443;-74
2021/10/01 10:34:19;;;;;;;7.43;2.07;;;;;;;;;;5014228;28;21003;-74
2021/10/01 10:36:48;;;;;;;10.03;3.37;;;;;;;;;;5014151;28;20431;-75
2021/10/01 10:39:33;;;;;;;8.77;2.30;;;;;;;;;;5013987;28;20481;-74
2021/10/01 10:42:11;;;;;;;78.67;5.57;;;;;;;;;;5014392;28;20808;-74
2021/10/01 10:44:43;;;;;;;43.13;4.90;;;;;;;;;;5014316;28;20430;-74
2021/10/01 10:47:12;;;;;;;12.53;2.10;;;;;;;;;;5014293;28;20895;-74
2021/10/01 10:49:41;;;;;;;13.17;2.77;;;;;;;;;;5014470;28;20964;-75
2021/10/01 10:52:11;;;;;;;7.30;2.30;;;;;;;;;;5014962;28;20864;-74
2021/10/01 10:54:39;;;;;;;11.37;2.70;;;;;;;;;;5014507;28;20781;-74
2021/10/01 10:57:27;;;;;;;13.47;2.60;;;;;;;;;;5014409;28;20529;-75
2021/10/01 10:59:55;;;;;;;11.83;2.43;;;;;;;;;;5013768;28;20491;-76
2021/10/01 11:02:27;;;;;;;26.73;3.10;;;;;;;;;;5014124;28;20800;-75
2021/10/01 11:05:17;;;;;;;14.80;2.20;;;;;;;;;;5013951;28;20420;-75
2021/10/01 11:07:48;;;;;;;3.97;2.20;;;;;;;;;;5013978;28;20424;-75
2021/10/01 11:10:39;;;;;;;7.27;2.27;;;;;;;;;;5014121;28;20476;-75
2021/10/01 11:13:25;;;;;;;13.83;2.40;;;;;;;;;;5014363;28;20427;-74
2021/10/01 11:16:11;;;;;;;5.77;2.27;;;;;;;;;;5014218;28;20434;-74
2021/10/01 11:18:58;;;;;;;2.73;1.50;;;;;;;;;;5013732;28;20514;-75
2021/10/01 11:21:30;;;;;;;4.80;1.50;;;;;;;;;;5013446;28;20890;-75
2021/10/01 11:23:58;;;;;;;6.13;2.10;;;;;;;;;;5013413;28;20452;-75
2021/10/01 11:26:25;;;;;;;3.00;1.70;;;;;;;;;;5013886;28;20534;-75
2021/10/01 11:28:53;;;;;;;2.90;1.50;;;;;;;;;;5013466;28;20936;-75
2021/10/01 11:31:20;;;;;;;4.03;1.77;;;;;;;;;;5013627;28;20445;-75
2021/10/01 11:33:49;;;;;;;9.03;2.00;;;;;;;;;;5013580;28;20452;-75
2021/10/01 11:36:16;;;;;;;4.70;1.80;;;;;;;;;;5013673;28;20531;-75
2021/10/01 11:38:44;;;;;;;3.93;1.70;;;;;;;;;;5013531;28;20831;-75
2021/10/01 11:41:13;;;;;;;7.13;1.93;;;;;;;;;;5013203;28;20448;-75
2021/10/01 11:43:50;;;;;;;2.83;1.60;;;;;;;;;;5013826;28;20913;-76
2021/10/01 11:46:27;;;;;;;9.03;1.70;;;;;;;;;;5013810;28;20442;-76
2021/10/01 11:48:56;;;;;;;2.87;1.83;;;;;;;;;;5013424;28;20448;-75
2021/10/01 11:51:23;;;;;;;2.83;1.90;;;;;;;;;;5013571;28;20995;-75
2021/10/01 11:54:05;;;;;;;3.53;1.57;;;;;;;;;;5013414;28;20450;-74
2021/10/01 11:56:33;;;;;;;3.40;1.80;;;;;;;;;;5013990;28;20424;-75
2021/10/01 11:59:00;;;;;;;2.00;1.40;;;;;;;;;;5013036;28;20577;-75
2021/10/01 12:01:27;;;;;;;5.30;1.60;;;;;;;;;;5013359;28;20437;-75
2021/10/01 12:03:55;;;;;;;6.27;1.70;;;;;;;;;;5013293;28;20543;-75
2021/10/01 12:06:25;;;;;;;4.77;1.80;;;;;;;;;;5013331;28;20526;-76
2021/10/01 12:08:55;;;;;;;2.40;1.70;;;;;;;;;;5013339;28;20483;-75
2021/10/01 12:11:27;;;;;;;2.43;1.40;;;;;;;;;;5012954;28;20495;-76
2021/10/01 12:13:54;;;;;;;7.47;1.80;;;;;;;;;;5013214;28;20446;-75
2021/10/01 12:16:22;;;;;;;2.93;1.50;;;;;;;;;;5013492;28;20532;-76
2021/10/01 12:18:54;;;;;;;2.10;1.33;;;;;;;;;;5013184;28;20513;-75
2021/10/01 12:21:25;;;;;;;1.83;1.50;;;;;;;;;;5013336;28;20456;-75
2021/10/01 12:23:56;;;;;;;3.60;1.67;;;;;;;;;;5013372;28;20931;-75
2021/10/01 12:26:28;;;;;;;4.97;1.83;;;;;;;;;;5012911;28;20433;-75
2021/10/01 12:28:59;;;;;;;3.87;1.70;;;;;;;;;;5013402;28;20880;-76
2021/10/01 12:31:29;;;;;;;2.73;1.40;;;;;;;;;;5013189;28;20515;-75
2021/10/01 12:33:57;;;;;;;3.10;1.67;;;;;;;;;;5014228;28;20425;-75
2021/10/01 12:36:26;;;;;;;3.70;2.20;;;;;;;;;;5013057;28;20451;-75
2021/10/01 12:38:54;;;;;;;5.83;2.23;;;;;;;;;;5012631;28;20557;-72
2021/10/01 12:41:21;;;;;;;6.27;1.97;;;;;;;;;;5012599;28;20530;-77
2021/10/01 12:43:49;;;;;;;6.57;1.70;;;;;;;;;;5013470;28;20801;-77
2021/10/01 12:46:36;;;;;;;5.60;1.73;;;;;;;;;;5016406;28;20933;-76
2021/10/01 12:49:21;;;;;;;2.03;1.40;;;;;;;;;;5016453;28;20445;-78
2021/10/01 12:52:01;;;;;;;3.43;1.73;;;;;;;;;;5016313;28;20488;-77
2021/10/01 12:54:29;;;;;;;2.20;2.00;;;;;;;;;;5016966;28;20475;-77
2021/10/01 12:57:10;;;;;;;5.93;2.00;;;;;;;;;;5016987;28;20443;-78
2021/10/01 12:59:37;;;;;;;1.90;1.40;;;;;;;;;;5016318;28;20477;-79
2021/10/01 13:02:14;;;;;;;3.27;1.37;;;;;;;;;;5017291;28;20454;-79
2021/10/01 13:04:46;;;;;;;2.33;1.50;;;;;;;;;;5034997;28;20424;-77
2021/10/01 13:07:28;;;;;;;3.00;1.70;;;;;;;;;;5035164;28;20447;-75
2021/10/01 13:09:56;;;;;;;3.73;1.70;;;;;;;;;;5035786;28;20516;-79
2021/10/01 13:12:30;;;;;;;2.80;1.50;;;;;;;;;;5036249;28;20445;-78
2021/10/01 13:15:23;;;;;;;4.10;1.90;;;;;;;;;;5035463;28;20440;-77
2021/10/01 13:18:21;;;;;;;4.03;1.50;;;;;;;;;;4989015;28;20457;-77
2021/10/01 13:20:50;;;;;;;3.20;1.97;;;;;;;;;;4990801;28;20583;-78
2021/10/01 13:23:22;;;;;;;6.93;1.60;;;;;;;;;;5035102;28;20535;-78
2021/10/01 13:25:51;;;;;;;4.53;1.77;;;;;;;;;;5034639;28;20451;-78
2021/10/01 13:28:18;;;;;;;4.53;1.60;;;;;;;;;;5035098;28;20441;-78
2021/10/01 13:30:46;;;;;;;3.63;1.30;;;;;;;;;;5035230;28;20519;-75
2021/10/01 13:33:14;;;;;;;4.33;1.53;;;;;;;;;;5034270;28;20452;-79
2021/10/01 13:35:41;;;;;;;3.50;1.40;;;;;;;;;;5034857;28;20445;-76
2021/10/01 13:38:09;;;;;;;6.37;1.87;;;;;;;;;;5034974;28;20812;-76
2021/10/01 13:40:38;;;;;;;1.40;1.30;;;;;;;;;;5035193;28;20480;-77
2021/10/01 13:43:06;;;;;;;1.90;1.70;;;;;;;;;;5035037;28;20441;-69
2021/10/01 13:45:33;;;;;;;6.20;1.57;;;;;;;;;;5035226;28;20526;-73
2021/10/01 13:48:01;;;;;;;2.20;1.50;;;;;;;;;;5035280;28;20452;-73
2021/10/01 13:50:28;;;;;;;2.23;1.43;;;;;;;;;;5034788;28;20490;-73
2021/10/01 13:52:55;;;;;;;2.80;1.50;;;;;;;;;;5034092;28;20444;-73
2021/10/01 13:55:22;;;;;;;4.40;2.20;;;;;;;;;;5034817;28;20446;-73
2021/10/01 13:57:51;;;;;;;1.83;1.67;;;;;;;;;;5035131;28;20458;-73
2021/10/01 14:00:20;;;;;;;3.60;1.53;;;;;;;;;;5034546;28;20975;-73
2021/10/01 14:02:48;;;;;;;3.77;1.40;;;;;;;;;;5034867;28;20503;-73
2021/10/01 14:05:16;;;;;;;3.13;1.47;;;;;;;;;;5034403;28;20445;-73
2021/10/01 14:07:45;;;;;;;7.03;2.00;;;;;;;;;;5034435;28;20450;-73
2021/10/01 14:10:14;;;;;;;4.53;2.00;;;;;;;;;;5034778;28;20546;-73
2021/10/01 14:12:41;;;;;;;3.07;2.47;;;;;;;;;;5035006;28;20444;-73
2021/10/01 14:15:10;;;;;;;7.70;4.10;;;;;;;;;;5034705;28;20455;-73
2021/10/01 14:17:38;;;;;;;2.60;2.37;;;;;;;;;;5034659;28;20448;-74
2021/10/01 14:20:06;;;;;;;1.70;1.50;;;;;;;;;;5034228;28;20494;-73
2021/10/01 14:22:34;;;;;;;4.90;3.43;;;;;;;;;;5034882;28;20484;-73
2021/10/01 14:25:01;;;;;;;1.90;1.40;;;;;;;;;;5034505;28;20444;-73
2021/10/01 14:27:28;;;;;;;1.63;1.50;;;;;;;;;;5034099;28;20455;-73
2021/10/01 14:29:56;;;;;;;2.30;1.50;;;;;;;;;;5034809;28;20452;-73
2021/10/01 14:32:25;;;;;;;1.90;1.70;;;;;;;;;;5034334;28;20440;-73
2021/10/01 14:35:02;;;;;;;6.33;1.67;;;;;;;;;;5034707;28;20439;-73
2021/10/01 14:37:29;;;;;;;2.20;2.00;;;;;;;;;;5033794;28;20923;-73
2021/10/01 14:39:57;;;;;;;5.70;3.87;;;;;;;;;;5034092;28;20482;-73
2021/10/01 14:42:25;;;;;;;2.97;2.70;;;;;;;;;;5033865;28;20443;-77
2021/10/01 14:44:57;;;;;;;1.77;1.57;;;;;;;;;;5033814;28;20539;-72
2021/10/01 14:47:30;;;;;;;2.20;1.50;;;;;;;;;;5033450;28;20432;-71
2021/10/01 14:49:57;;;;;;;2.87;1.60;;;;;;;;;;5033908;28;20499;-74
2021/10/01 14:52:24;;;;;;;3.60;2.10;;;;;;;;;;5032667;28;20453;-75
2021/10/01 14:54:52;;;;;;;2.40;1.80;;;;;;;;;;5033510;28;20448;-76
2021/10/01 14:57:19;;;;;;;1.83;1.60;;;;;;;;;;5033233;28;20858;-73
2021/10/01 14:59:46;;;;;;;4.03;2.10;;;;;;;;;;5033672;28;20489;-73
2021/10/01 15:02:15;;;;;;;2.63;1.60;;;;;;;;;;5033355;28;20452;-76
2021/10/01 15:04:44;;;;;;;4.10;1.80;;;;;;;;;;5032725;28;20460;-74
2021/10/01 15:07:11;;;;;;;2.73;1.73;;;;;;;;;;5032574;28;20455;-76
2021/10/01 15:09:38;;;;;;;2.93;1.57;;;;;;;;;;5033619;28;20451;-76
2021/10/01 15:12:06;;;;;;;2.43;1.93;;;;;;;;;;5033303;28;20518;-76
2021/10/01 15:14:33;;;;;;;3.77;1.80;;;;;;;;;;5033240;28;20447;-77
2021/10/01 15:17:00;;;;;;;5.67;1.97;;;;;;;;;;5033525;28;20543;-77
2021/10/01 15:19:27;;;;;;;4.93;1.60;;;;;;;;;;5033057;28;21040;-76
2021/10/01 15:21:56;;;;;;;4.80;1.77;;;;;;;;;;5033071;28;20925;-77
2021/10/01 15:24:23;;;;;;;3.87;2.83;;;;;;;;;;5033674;28;20443;-78
2021/10/01 15:26:50;;;;;;;3.80;3.40;;;;;;;;;;5026938;28;20442;-77
2021/10/01 15:29:18;;;;;;;3.10;1.53;;;;;;;;;;5022522;28;20788;-77
2021/10/01 15:31:45;;;;;;;4.80;2.13;;;;;;;;;;5023523;28;20439;-76
2021/10/01 15:34:12;;;;;;;3.13;2.20;;;;;;;;;;5018435;28;20449;-75
2021/10/01 15:36:39;;;;;;;2.60;1.50;;;;;;;;;;5012457;28;20444;-74
2021/10/01 15:39:08;;;;;;;3.60;1.73;;;;;;;;;;5012222;28;20956;-74
2021/10/01 15:41:35;;;;;;;2.93;2.23;;;;;;;;;;5013043;28;20492;-76
2021/10/01 15:44:02;;;;;;;3.57;1.70;;;;;;;;;;5013450;28;20468;-76
2021/10/01 15:46:30;;;;;;;2.03;1.20;;;;;;;;;;5013089;28;20532;-77
2021/10/01 15:48:57;;;;;;;3.70;1.77;;;;;;;;;;5013370;28;20445;-75
2021/10/01 15:51:24;;;;;;;2.60;1.40;;;;;;;;;;5013010;28;20552;-75
2021/10/01 15:53:51;;;;;;;6.90;1.40;;;;;;;;;;5027000;28;20445;-75
2021/10/01 15:56:21;;;;;;;7.47;2.20;;;;;;;;;;5032480;28;20440;-78
2021/10/01 15:58:48;;;;;;;2.10;1.90;;;;;;;;;;5032620;28;20796;-77
2021/10/01 16:01:16;;;;;;;3.70;2.30;;;;;;;;;;5032651;28;20478;-76
2021/10/01 16:03:44;;;;;;;3.73;2.03;;;;;;;;;;5032744;28;20459;-73
2021/10/01 16:06:11;;;;;;;2.80;1.87;;;;;;;;;;5032888;28;20547;-74
2021/10/01 16:08:38;;;;;;;6.87;1.80;;;;;;;;;;5033319;28;20447;-74
2021/10/01 16:11:05;;;;;;;1.97;1.53;;;;;;;;;;5033161;28;20441;-75
2021/10/01 16:13:34;;;;;;;1.93;1.73;;;;;;;;;;5032928;28;20453;-76
2021/10/01 16:16:01;;;;;;;3.63;2.40;;;;;;;;;;5032474;28;20443;-76
2021/10/01 16:18:28;;;;;;;4.53;1.87;;;;;;;;;;5032357;28;20976;-75
2021/10/01 16:20:55;;;;;;;1.40;1.30;;;;;;;;;;5036177;28;20477;-75
2021/10/01 16:23:23;;;;;;;1.57;1.47;;;;;;;;;;5036788;28;20537;-75
2021/10/01 16:25:50;;;;;;;3.67;2.03;;;;;;;;;;5036435;28;20941;-75
2021/10/01 16:28:17;;;;;;;2.50;1.63;;;;;;;;;;5036196;28;20505;-75
2021/10/01 16:30:47;;;;;;;3.13;2.83;;;;;;;;;;5036238;28;20466;-75